createdAt,value
2023-02-15T00:00:26.649Z,2.80
2023-02-15T00:02:54.304Z,2.71
2023-02-15T00:05:22.258Z,2.57
2023-02-15T00:07:49.917Z,2.46
2023-02-15T00:10:18.310Z,2.33
2023-02-15T00:12:46.025Z,2.34
2023-02-15T00:15:14.010Z,2.35
2023-02-15T00:17:42.997Z,2.44
2023-02-15T00:20:11.893Z,2.62
2023-02-15T00:22:39.856Z,2.70
2023-02-15T00:25:08.350Z,2.73
2023-02-15T00:27:36.336Z,2.85
2023-02-15T00:30:04.376Z,2.95
2023-02-15T00:32:32.385Z,3.00
2023-02-15T00:35:01.432Z,3.00
2023-02-15T00:37:29.057Z,2.89
2023-02-15T00:39:56.638Z,2.87
2023-02-15T00:42:24.259Z,2.89
2023-02-15T00:44:51.934Z,2.65
2023-02-15T00:47:19.724Z,2.83
2023-02-15T00:49:47.338Z,2.28
2023-02-15T00:52:16.416Z,2.44
2023-02-15T00:54:44.012Z,2.66
2023-02-15T00:57:11.688Z,2.65
2023-02-15T00:59:39.351Z,2.63
2023-02-15T01:02:06.945Z,2.63
2023-02-15T01:04:34.742Z,2.48
2023-02-15T01:07:03.010Z,2.38
2023-02-15T01:09:32.091Z,2.39
2023-02-15T01:11:59.776Z,2.25
2023-02-15T01:14:27.437Z,2.57
2023-02-15T01:16:55.135Z,2.31
2023-02-15T01:19:22.765Z,2.50
2023-02-15T01:21:50.377Z,2.67
2023-02-15T01:24:18.703Z,2.67
2023-02-15T01:26:47.789Z,2.76
2023-02-15T01:29:15.489Z,2.67
2023-02-15T01:31:43.366Z,2.64
2023-02-15T01:34:11.055Z,2.66
2023-02-15T01:36:38.807Z,2.77
2023-02-15T01:39:06.513Z,2.83
2023-02-15T01:41:34.311Z,2.42
2023-02-15T01:44:05.283Z,2.32
2023-02-15T01:46:42.566Z,2.55
2023-02-15T01:49:15.143Z,2.51
2023-02-15T01:51:45.604Z,2.51
2023-02-15T01:54:20.826Z,2.62
2023-02-15T01:56:49.132Z,2.61
2023-02-15T01:59:23.907Z,2.60
2023-02-15T02:01:53.854Z,2.52
2023-02-15T02:04:27.549Z,2.36
2023-02-15T02:06:56.030Z,2.31
2023-02-15T02:09:23.798Z,2.46
2023-02-15T02:11:52.902Z,2.23
2023-02-15T02:14:23.135Z,2.09
2023-02-15T02:16:58.933Z,2.38
2023-02-15T02:20:14.308Z,2.47
2023-02-15T02:23:04.432Z,2.27
2023-02-15T02:26:18.594Z,2.37
2023-02-15T02:29:19.181Z,1.90
2023-02-15T02:32:18.617Z,2.38
2023-02-15T02:34:53.340Z,2.46
2023-02-15T02:37:26.700Z,2.46
2023-02-15T02:40:05.015Z,2.39
2023-02-15T02:42:40.916Z,2.32
2023-02-15T02:45:12.868Z,2.35
2023-02-15T02:47:45.176Z,2.05
2023-02-15T02:50:18.777Z,1.81
2023-02-15T02:52:48.129Z,1.86
2023-02-15T02:55:20.065Z,2.04
2023-02-15T02:57:55.470Z,2.08
2023-02-15T03:00:25.450Z,2.06
2023-02-15T03:02:59.822Z,1.89
2023-02-15T03:05:32.217Z,2.11
2023-02-15T03:08:07.195Z,2.09
2023-02-15T03:10:38.423Z,1.92
2023-02-15T03:13:06.383Z,1.84
2023-02-15T03:15:56.793Z,1.71
2023-02-15T03:18:27.402Z,1.92
2023-02-15T03:20:58.145Z,1.91
2023-02-15T03:23:29.974Z,2.00
2023-02-15T03:26:01.374Z,1.73
2023-02-15T03:28:33.432Z,1.74
2023-02-15T03:31:05.125Z,1.85
2023-02-15T03:33:33.900Z,1.93
2023-02-15T03:36:06.749Z,1.98
2023-02-15T03:38:42.783Z,2.14
2023-02-15T03:41:12.144Z,2.07
2023-02-15T03:43:51.768Z,2.01
2023-02-15T03:46:28.834Z,2.00
2023-02-15T03:49:00.984Z,2.03
2023-02-15T03:51:36.994Z,2.02
2023-02-15T03:54:09.102Z,1.88
2023-02-15T03:56:38.149Z,1.68
2023-02-15T03:59:23.777Z,1.90
2023-02-15T04:02:01.624Z,1.80
2023-02-15T04:04:35.003Z,1.93
2023-02-15T04:07:05.497Z,1.88
2023-02-15T04:09:50.571Z,1.79
2023-02-15T04:12:18.504Z,1.85
2023-02-15T04:15:03.766Z,1.96
2023-02-15T04:17:31.703Z,1.96
2023-02-15T04:20:16.744Z,1.95
2023-02-15T04:23:03.817Z,1.92
2023-02-15T04:25:31.582Z,1.82
2023-02-15T04:27:59.469Z,1.75
2023-02-15T04:30:28.437Z,1.99
2023-02-15T04:32:58.213Z,2.01
2023-02-15T04:35:26.736Z,1.92
2023-02-15T04:37:56.869Z,1.62
2023-02-15T04:40:24.877Z,1.58
2023-02-15T04:42:53.144Z,1.54
2023-02-15T04:45:20.830Z,1.65
2023-02-15T04:47:48.478Z,1.50
2023-02-15T04:50:16.463Z,1.72
2023-02-15T04:52:44.229Z,1.78
2023-02-15T04:55:13.539Z,1.91
2023-02-15T04:57:41.160Z,1.86
2023-02-15T05:00:10.693Z,1.84
2023-02-15T05:02:38.837Z,1.83
2023-02-15T05:05:07.133Z,1.61
2023-02-15T05:07:34.729Z,1.24
2023-02-15T05:10:02.484Z,1.16
2023-02-15T05:12:31.594Z,1.37
2023-02-15T05:14:59.260Z,1.40
2023-02-15T05:17:26.909Z,1.40
2023-02-15T05:19:54.563Z,1.49
2023-02-15T05:22:22.149Z,1.44
2023-02-15T05:25:07.412Z,1.44
2023-02-15T05:27:54.455Z,1.45
2023-02-15T05:30:22.422Z,1.39
2023-02-15T05:32:50.190Z,1.45
2023-02-15T05:35:18.365Z,1.26
2023-02-15T05:37:46.032Z,1.25
2023-02-15T05:40:14.032Z,1.41
2023-02-15T05:42:43.001Z,1.42
2023-02-15T05:45:11.128Z,1.47
2023-02-15T05:47:39.113Z,1.36
2023-02-15T05:50:08.290Z,1.38
2023-02-15T05:52:36.202Z,1.33
2023-02-15T05:55:05.151Z,1.48
2023-02-15T05:57:32.871Z,1.49
2023-02-15T06:00:02.064Z,1.31
2023-02-15T06:02:29.759Z,1.48
2023-02-15T06:04:57.410Z,0.99
2023-02-15T06:07:25.178Z,1.43
2023-02-15T06:09:52.970Z,1.47
2023-02-15T06:12:20.612Z,1.48
2023-02-15T06:14:48.314Z,1.13
2023-02-15T06:17:17.658Z,1.16
2023-02-15T06:19:45.545Z,1.20
2023-02-15T06:22:14.933Z,1.25
2023-02-15T06:24:44.290Z,1.39
2023-02-15T06:27:11.973Z,1.31
2023-02-15T06:29:39.669Z,1.19
2023-02-15T06:32:10.239Z,1.45
2023-02-15T06:34:39.317Z,1.41
2023-02-15T06:37:08.993Z,1.52
2023-02-15T06:39:36.663Z,1.52
2023-02-15T06:42:04.531Z,1.46
2023-02-15T06:44:32.209Z,1.40
2023-02-15T06:46:59.916Z,1.45
2023-02-15T06:49:27.733Z,1.14
2023-02-15T06:51:56.748Z,1.07
2023-02-15T06:54:24.411Z,1.27
2023-02-15T06:56:52.073Z,1.28
2023-02-15T06:59:19.825Z,1.46
2023-02-15T07:01:47.632Z,1.48
2023-02-15T07:04:15.259Z,1.65
2023-02-15T07:06:42.949Z,1.60
2023-02-15T07:09:13.769Z,1.36
2023-02-15T07:11:58.936Z,1.18
2023-02-15T07:14:28.875Z,1.35
2023-02-15T07:16:56.614Z,1.19
2023-02-15T07:19:24.801Z,1.23
2023-02-15T07:21:52.500Z,1.20
2023-02-15T07:24:21.472Z,1.43
2023-02-15T07:26:49.139Z,1.19
2023-02-15T07:29:17.221Z,1.36
2023-02-15T07:31:46.316Z,1.13
2023-02-15T07:34:14.064Z,1.26
2023-02-15T07:36:41.771Z,1.39
2023-02-15T07:39:09.521Z,1.28
2023-02-15T07:41:38.851Z,1.39
2023-02-15T07:44:06.889Z,1.14
2023-02-15T07:46:34.656Z,0.97
2023-02-15T07:49:02.385Z,1.17
2023-02-15T07:51:30.146Z,1.48
2023-02-15T07:53:57.945Z,1.70
2023-02-15T07:56:25.660Z,1.69
2023-02-15T07:58:56.601Z,1.42
2023-02-15T08:01:27.380Z,1.77
2023-02-15T08:03:56.093Z,1.61
2023-02-15T08:06:25.874Z,1.67
2023-02-15T08:08:54.044Z,1.81
2023-02-15T08:11:37.499Z,1.77
2023-02-15T08:14:08.823Z,1.73
2023-02-15T08:16:38.795Z,1.66
2023-02-15T08:19:08.801Z,1.44
2023-02-15T08:21:38.575Z,1.25
2023-02-15T08:24:07.591Z,0.96
2023-02-15T08:26:35.880Z,0.99
2023-02-15T08:29:09.089Z,1.26
2023-02-15T08:31:39.101Z,1.33
2023-02-15T08:34:07.719Z,1.23
2023-02-15T08:36:35.799Z,1.45
2023-02-15T08:39:07.001Z,1.55
2023-02-15T08:41:36.489Z,1.53
2023-02-15T08:44:06.277Z,1.77
2023-02-15T08:46:35.719Z,1.60
2023-02-15T08:49:05.723Z,1.38
2023-02-15T08:51:35.837Z,1.52
2023-02-15T08:54:07.108Z,1.67
2023-02-15T08:56:37.100Z,1.38
2023-02-15T08:59:07.679Z,1.57
2023-02-15T09:01:37.184Z,1.45
2023-02-15T09:04:09.738Z,1.43
2023-02-15T09:06:38.547Z,1.49
2023-02-15T09:09:06.806Z,1.66
2023-02-15T09:11:36.949Z,1.67
2023-02-15T09:14:06.556Z,1.91
2023-02-15T09:16:36.348Z,1.89
2023-02-15T09:19:06.544Z,1.95
2023-02-15T09:21:35.517Z,1.93
2023-02-15T09:24:06.737Z,2.05
2023-02-15T09:26:37.054Z,1.86
2023-02-15T09:29:05.838Z,1.75
2023-02-15T09:31:35.766Z,1.66
2023-02-15T09:34:03.755Z,1.86
2023-02-15T09:36:35.924Z,1.96
2023-02-15T09:39:09.620Z,2.15
2023-02-15T09:42:04.511Z,2.09
2023-02-15T09:44:48.751Z,1.96
2023-02-15T09:47:44.410Z,1.56
2023-02-15T09:50:22.317Z,1.82
2023-02-15T09:53:12.231Z,1.91
2023-02-15T09:55:53.301Z,1.90
2023-02-15T09:58:31.640Z,1.76
2023-02-15T10:01:07.678Z,1.92
2023-02-15T10:03:44.996Z,2.33
2023-02-15T10:06:33.943Z,2.45
2023-02-15T10:09:37.080Z,2.50
2023-02-15T10:12:36.593Z,2.55
2023-02-15T10:15:28.610Z,2.87
2023-02-15T10:18:13.359Z,2.69
2023-02-15T10:20:51.739Z,2.77
2023-02-15T10:23:37.263Z,2.86
2023-02-15T10:26:15.147Z,2.84
2023-02-15T10:28:48.773Z,2.66
2023-02-15T10:31:27.415Z,2.75
2023-02-15T10:34:15.901Z,2.83
2023-02-15T10:36:59.545Z,2.71
2023-02-15T10:39:32.559Z,2.78
2023-02-15T10:42:10.161Z,2.85
2023-02-15T10:44:52.707Z,3.03
2023-02-15T10:47:45.608Z,3.13
2023-02-15T10:50:27.391Z,3.09
2023-02-15T10:53:09.090Z,3.21
2023-02-15T10:55:48.098Z,2.96
2023-02-15T10:58:26.721Z,2.80
2023-02-15T11:01:02.268Z,3.08
2023-02-15T11:03:41.279Z,3.22
2023-02-15T11:06:11.354Z,3.34
2023-02-15T11:08:44.360Z,3.18
2023-02-15T11:11:17.792Z,3.13
2023-02-15T11:13:52.885Z,3.19
2023-02-15T11:16:24.929Z,3.20
2023-02-15T11:18:58.276Z,3.06
2023-02-15T11:21:30.053Z,3.14
2023-02-15T11:23:57.936Z,3.09
2023-02-15T11:26:31.854Z,3.24
2023-02-15T11:29:09.655Z,3.44
2023-02-15T11:31:45.352Z,3.29
2023-02-15T11:34:20.899Z,3.55
2023-02-15T11:36:53.127Z,3.28
2023-02-15T11:39:24.155Z,2.83
2023-02-15T11:41:57.070Z,3.22
2023-02-15T11:44:33.559Z,3.31
2023-02-15T11:47:02.483Z,3.39
2023-02-15T11:49:32.936Z,3.19
2023-02-15T11:52:04.877Z,3.38
2023-02-15T11:54:34.596Z,3.23
2023-02-15T11:57:13.480Z,3.27
2023-02-15T11:59:46.304Z,3.55
2023-02-15T12:02:19.323Z,3.34
2023-02-15T12:04:53.223Z,3.52
2023-02-15T12:07:26.700Z,3.55
2023-02-15T12:10:02.461Z,3.48
2023-02-15T12:12:32.700Z,3.53
2023-02-15T12:15:03.782Z,3.40
2023-02-15T12:17:34.492Z,3.54
2023-02-15T12:20:04.582Z,3.36
2023-02-15T12:22:36.182Z,3.35
2023-02-15T12:25:13.322Z,3.61
2023-02-15T12:27:45.491Z,3.24
2023-02-15T12:30:24.187Z,3.44
2023-02-15T12:32:57.325Z,3.64
2023-02-15T12:35:30.908Z,3.65
2023-02-15T12:38:04.327Z,3.61
2023-02-15T12:40:34.443Z,3.38
2023-02-15T12:43:08.971Z,3.59
2023-02-15T12:45:39.595Z,3.62
2023-02-15T12:48:17.205Z,3.69
2023-02-15T12:50:46.375Z,3.76
2023-02-15T12:53:20.674Z,3.82
2023-02-15T12:55:54.214Z,3.68
2023-02-15T12:58:26.098Z,3.93
2023-02-15T13:01:16.691Z,3.61
2023-02-15T13:03:59.873Z,3.28
2023-02-15T13:06:31.039Z,3.62
2023-02-15T13:09:07.880Z,3.64
2023-02-15T13:11:36.360Z,3.52
2023-02-15T13:14:17.641Z,3.68
2023-02-15T13:16:49.363Z,3.84
2023-02-15T13:19:19.136Z,3.97
2023-02-15T13:21:50.220Z,3.94
2023-02-15T13:24:24.842Z,3.70
2023-02-15T13:27:01.003Z,3.72
2023-02-15T13:29:39.707Z,3.79
2023-02-15T13:32:29.869Z,3.80
2023-02-15T13:35:00.336Z,3.67
2023-02-15T13:38:01.556Z,3.77
2023-02-15T13:40:37.670Z,3.82
2023-02-15T13:43:17.361Z,3.71
2023-02-15T13:45:57.988Z,3.50
2023-02-15T13:48:48.322Z,3.59
2023-02-15T13:51:24.319Z,3.71
2023-02-15T13:54:26.056Z,3.63
2023-02-15T13:57:07.630Z,3.72
2023-02-15T13:59:48.493Z,3.74
2023-02-15T14:02:46.134Z,3.87
2023-02-15T14:05:28.616Z,3.62
2023-02-15T14:08:03.964Z,3.71
2023-02-15T14:10:40.396Z,3.56
2023-02-15T14:13:38.088Z,3.64
2023-02-15T14:16:13.843Z,3.77
2023-02-15T14:18:47.907Z,3.66
2023-02-15T14:21:22.652Z,3.78
2023-02-15T14:24:03.556Z,3.91
2023-02-15T14:26:42.678Z,3.99
2023-02-15T14:29:22.540Z,3.91
2023-02-15T14:31:55.888Z,3.97
2023-02-15T14:34:29.187Z,3.87
2023-02-15T14:36:59.821Z,4.13
2023-02-15T14:39:56.492Z,4.25
2023-02-15T14:42:27.701Z,4.40
2023-02-15T14:45:03.082Z,4.27
2023-02-15T14:47:37.493Z,4.27
2023-02-15T14:50:38.732Z,4.33
2023-02-15T14:53:40.148Z,4.42
2023-02-15T14:56:19.915Z,4.26
2023-02-15T14:59:19.783Z,4.20
2023-02-15T15:01:58.343Z,4.19
2023-02-15T15:04:31.202Z,3.75
2023-02-15T15:07:12.275Z,3.66
2023-02-15T15:09:43.933Z,3.78
2023-02-15T15:12:34.580Z,4.01
2023-02-15T15:15:02.839Z,4.11
2023-02-15T15:17:56.372Z,3.81
2023-02-15T15:20:51.501Z,3.67
2023-02-15T15:23:50.258Z,3.67
2023-02-15T15:26:41.743Z,3.51
2023-02-15T15:29:09.436Z,3.68
2023-02-15T15:31:46.607Z,3.62
2023-02-15T15:34:24.038Z,4.06
2023-02-15T15:37:25.775Z,3.79
2023-02-15T15:40:32.883Z,4.13
2023-02-15T15:43:50.613Z,4.22
2023-02-15T15:46:51.786Z,4.38
2023-02-15T15:49:22.360Z,3.95
2023-02-15T15:51:51.474Z,4.10
2023-02-15T15:54:22.147Z,4.02
2023-02-15T15:56:54.364Z,3.78
2023-02-15T15:59:26.966Z,3.47
2023-02-15T16:01:54.813Z,3.69
2023-02-15T16:04:28.253Z,4.02
2023-02-15T16:06:56.266Z,4.17
2023-02-15T16:09:28.461Z,4.12
2023-02-15T16:12:01.333Z,4.07
2023-02-15T16:14:38.125Z,3.96
2023-02-15T16:17:10.595Z,4.04
2023-02-15T16:19:42.581Z,4.14
2023-02-15T16:22:16.191Z,4.08
2023-02-15T16:25:11.932Z,4.16
2023-02-15T16:27:42.558Z,3.55
2023-02-15T16:30:27.732Z,3.55
2023-02-15T16:32:57.404Z,3.58
2023-02-15T16:35:26.222Z,3.70
2023-02-15T16:37:53.873Z,3.61
2023-02-15T16:40:41.041Z,3.06
2023-02-15T16:43:16.911Z,3.52
2023-02-15T16:45:46.537Z,3.64
2023-02-15T16:48:21.464Z,3.90
2023-02-15T16:50:53.203Z,3.83
2023-02-15T16:53:25.512Z,3.83
2023-02-15T16:55:56.258Z,4.04
2023-02-15T16:58:30.672Z,4.02
2023-02-15T17:01:02.049Z,4.11
2023-02-15T17:03:30.783Z,3.88
2023-02-15T17:06:00.204Z,3.69
2023-02-15T17:08:32.673Z,3.92
2023-02-15T17:11:12.341Z,3.81
2023-02-15T17:13:40.812Z,3.82
2023-02-15T17:16:25.684Z,3.58
2023-02-15T17:18:54.744Z,3.59
2023-02-15T17:21:27.818Z,3.48
2023-02-15T17:24:01.115Z,3.50
2023-02-15T17:26:31.658Z,3.35
2023-02-15T17:29:01.812Z,3.05
2023-02-15T17:31:34.295Z,3.13
2023-02-15T17:34:03.601Z,3.02
2023-02-15T17:36:33.195Z,3.01
2023-02-15T17:39:05.825Z,2.77
2023-02-15T17:41:35.216Z,2.86
2023-02-15T17:44:04.204Z,2.85
2023-02-15T17:46:36.557Z,2.60
2023-02-15T17:49:05.485Z,2.71
2023-02-15T17:51:36.825Z,2.66
2023-02-15T17:54:23.119Z,2.56
2023-02-15T17:56:50.771Z,2.29
2023-02-15T17:59:20.400Z,2.46
2023-02-15T18:02:08.815Z,2.81
2023-02-15T18:04:55.962Z,2.81
2023-02-15T18:07:41.761Z,2.76
2023-02-15T18:10:34.488Z,2.87
2023-02-15T18:13:02.133Z,2.86
2023-02-15T18:15:30.247Z,2.72
2023-02-15T18:17:59.682Z,2.77
2023-02-15T18:20:37.898Z,2.64
2023-02-15T18:23:07.479Z,2.65
2023-02-15T18:25:35.116Z,2.71
2023-02-15T18:28:02.846Z,2.76
2023-02-15T18:30:30.577Z,2.77
2023-02-15T18:33:01.761Z,2.26
2023-02-15T18:35:35.041Z,2.67
2023-02-15T18:38:03.078Z,2.67
2023-02-15T18:40:31.418Z,2.62
2023-02-15T18:42:59.328Z,2.46
2023-02-15T18:45:32.608Z,2.29
2023-02-15T18:48:01.877Z,2.64
2023-02-15T18:50:33.885Z,2.47
2023-02-15T18:53:04.391Z,2.32
2023-02-15T18:55:33.735Z,2.15
2023-02-15T18:58:02.366Z,2.37
2023-02-15T19:00:33.909Z,2.47
2023-02-15T19:03:04.000Z,2.36
2023-02-15T19:05:33.927Z,2.25
2023-02-15T19:08:03.375Z,2.23
2023-02-15T19:10:33.964Z,2.02
2023-02-15T19:13:01.586Z,2.09
2023-02-15T19:15:31.534Z,2.03
2023-02-15T19:17:59.292Z,1.98
2023-02-15T19:20:38.788Z,1.91
2023-02-15T19:28:05.775Z,1.72
2023-02-15T19:35:09.837Z,2.16
2023-02-15T19:38:58.213Z,2.08
2023-02-15T19:41:35.510Z,2.09
2023-02-15T19:44:12.108Z,2.01
2023-02-15T19:46:45.441Z,1.82
2023-02-15T19:49:40.525Z,1.89
2023-02-15T19:52:30.242Z,1.74
2023-02-15T19:55:14.216Z,1.56
2023-02-15T19:57:48.918Z,1.60
2023-02-15T20:00:24.644Z,1.47
2023-02-15T20:03:43.866Z,1.32
2023-02-15T20:29:26.412Z,1.34
2023-02-15T20:32:49.199Z,1.39
2023-02-15T20:36:01.009Z,1.34
2023-02-15T20:47:05.930Z,1.20
2023-02-15T20:55:39.764Z,1.16
2023-02-15T20:58:47.152Z,0.93
2023-02-15T21:05:50.797Z,1.16
2023-02-15T21:08:21.223Z,1.11
2023-02-15T21:10:52.961Z,0.86
2023-02-15T21:13:26.515Z,0.90
2023-02-15T21:15:56.530Z,1.09
2023-02-15T21:18:27.070Z,1.25
2023-02-15T21:20:56.913Z,1.10
2023-02-15T21:23:27.988Z,1.26
2023-02-15T21:25:57.716Z,1.43
2023-02-15T21:28:33.661Z,1.72
2023-02-15T21:31:01.489Z,1.71
2023-02-15T21:33:29.628Z,1.55
2023-02-15T21:35:59.024Z,1.41
2023-02-15T21:38:30.984Z,1.30
2023-02-15T21:41:20.267Z,1.13
2023-02-15T21:44:05.412Z,1.02
2023-02-15T21:46:50.412Z,0.87
2023-02-15T21:49:18.156Z,0.99
2023-02-15T21:52:03.631Z,0.87
2023-02-15T21:54:31.286Z,0.79
2023-02-15T21:57:00.812Z,0.71
2023-02-15T21:59:28.662Z,0.69
2023-02-15T22:01:56.700Z,0.85
2023-02-15T22:04:26.800Z,0.70
2023-02-15T22:06:55.066Z,0.66
2023-02-15T22:09:24.766Z,0.62
2023-02-15T22:11:53.482Z,0.65
2023-02-15T22:14:37.349Z,0.65
2023-02-15T22:17:11.205Z,0.74
2023-02-15T22:19:38.904Z,0.67
2023-02-15T22:22:06.558Z,0.66
2023-02-15T22:24:34.206Z,0.58
2023-02-15T22:27:01.985Z,0.51
2023-02-15T22:29:31.064Z,0.45
2023-02-15T22:31:59.412Z,0.45
2023-02-15T22:34:29.482Z,0.33
2023-02-15T22:36:57.812Z,0.23
2023-02-15T22:39:26.228Z,0.24
2023-02-15T22:41:54.630Z,0.06
2023-02-15T22:44:26.597Z,0.16
2023-02-15T22:46:55.934Z,0.00
2023-02-15T22:49:23.587Z,-0.07
2023-02-15T22:51:52.255Z,-0.11
2023-02-15T22:54:20.535Z,0.04
2023-02-15T22:56:51.238Z,-0.01
2023-02-15T22:59:23.865Z,0.08
2023-02-15T23:01:51.755Z,0.03
2023-02-15T23:04:22.676Z,0.09
2023-02-15T23:06:51.513Z,-0.06
2023-02-15T23:09:19.157Z,-0.17
2023-02-15T23:11:47.086Z,-0.17
2023-02-15T23:14:27.320Z,-0.12
2023-02-15T23:16:55.107Z,-0.11
2023-02-15T23:19:24.247Z,-0.18
2023-02-15T23:21:52.087Z,-0.30
2023-02-15T23:24:22.583Z,-0.32
2023-02-15T23:26:51.637Z,-0.27
2023-02-15T23:29:22.122Z,-0.42
2023-02-15T23:31:51.662Z,-0.32
2023-02-15T23:34:21.921Z,-0.14
2023-02-15T23:36:51.189Z,-0.14
2023-02-15T23:39:39.012Z,-0.26
2023-02-15T23:42:10.774Z,-0.39
2023-02-15T23:44:39.400Z,-0.41
2023-02-15T23:47:19.143Z,-0.39
2023-02-15T23:49:46.992Z,-0.02
2023-02-15T23:52:16.093Z,-0.02
2023-02-15T23:54:43.691Z,-0.11
2023-02-15T23:57:13.390Z,0.18
2023-02-15T23:59:44.710Z,0.26
